createdAt,value
2023-01-08T00:00:58.939Z,69.56
2023-01-08T00:03:01.888Z,69.66
2023-01-08T00:05:05.148Z,69.49
2023-01-08T00:07:07.937Z,69.71
2023-01-08T00:09:10.894Z,69.37
2023-01-08T00:11:14.212Z,69.11
2023-01-08T00:13:17.025Z,69.72
2023-01-08T00:15:21.203Z,69.90
2023-01-08T00:17:24.011Z,69.38
2023-01-08T00:19:27.031Z,70.12
2023-01-08T00:21:30.514Z,69.80
2023-01-08T00:23:34.311Z,69.90
2023-01-08T00:25:37.094Z,70.32
2023-01-08T00:27:39.898Z,69.64
2023-01-08T00:29:42.675Z,70.14
2023-01-08T00:31:46.763Z,70.34
2023-01-08T00:33:49.556Z,69.49
2023-01-08T00:35:52.443Z,69.65
2023-01-08T00:37:55.269Z,69.65
2023-01-08T00:39:58.105Z,69.70
2023-01-08T00:42:00.874Z,69.67
2023-01-08T00:44:03.639Z,70.09
2023-01-08T00:46:07.230Z,69.61
2023-01-08T00:48:11.527Z,69.57
2023-01-08T00:50:14.536Z,69.23
2023-01-08T00:52:17.334Z,69.20
2023-01-08T00:54:20.292Z,69.06
2023-01-08T00:56:23.104Z,69.24
2023-01-08T00:58:25.944Z,69.14
2023-01-08T01:00:28.930Z,69.06
2023-01-08T01:02:31.716Z,68.90
2023-01-08T01:04:35.900Z,69.12
2023-01-08T01:06:38.937Z,68.97
2023-01-08T01:08:44.168Z,69.46
2023-01-08T01:10:46.981Z,68.97
2023-01-08T01:12:49.799Z,69.33
2023-01-08T01:14:52.619Z,68.86
2023-01-08T01:16:55.539Z,69.06
2023-01-08T01:18:58.661Z,69.46
2023-01-08T01:21:02.853Z,69.23
2023-01-08T01:23:05.743Z,69.32
2023-01-08T01:25:10.056Z,70.07
2023-01-08T01:27:12.862Z,70.05
2023-01-08T01:29:15.663Z,70.35
2023-01-08T01:31:19.003Z,70.42
2023-01-08T01:33:21.857Z,70.66
2023-01-08T01:35:24.841Z,70.55
2023-01-08T01:37:29.084Z,70.86
2023-01-08T01:39:31.847Z,70.92
2023-01-08T01:41:39.125Z,71.07
2023-01-08T01:43:43.461Z,71.07
2023-01-08T01:45:46.328Z,71.39
2023-01-08T01:47:54.380Z,71.06
2023-01-08T01:50:01.586Z,71.55
2023-01-08T01:52:08.854Z,71.55
2023-01-08T01:54:13.993Z,71.63
2023-01-08T01:56:17.182Z,71.67
2023-01-08T01:58:24.407Z,71.98
2023-01-08T02:00:28.389Z,72.50
2023-01-08T02:02:32.434Z,72.57
2023-01-08T02:04:35.318Z,72.90
2023-01-08T02:06:43.241Z,72.35
2023-01-08T02:08:57.043Z,72.37
2023-01-08T02:11:09.258Z,72.83
2023-01-08T02:13:20.406Z,73.26
2023-01-08T02:15:28.396Z,73.58
2023-01-08T02:17:40.405Z,73.67
2023-01-08T02:19:46.843Z,73.61
2023-01-08T02:21:59.913Z,73.22
2023-01-08T02:24:14.109Z,73.36
2023-01-08T02:26:22.692Z,73.63
2023-01-08T02:28:27.443Z,73.60
2023-01-08T02:30:31.011Z,73.83
2023-01-08T02:32:37.749Z,74.13
2023-01-08T02:34:40.501Z,73.84
2023-01-08T02:36:46.166Z,73.91
2023-01-08T02:39:01.980Z,73.76
2023-01-08T02:41:08.257Z,73.69
2023-01-08T02:43:18.656Z,73.80
2023-01-08T02:45:29.488Z,73.73
2023-01-08T02:47:36.390Z,73.71
2023-01-08T02:49:43.681Z,73.57
2023-01-08T02:51:50.624Z,73.61
2023-01-08T02:53:58.566Z,74.11
2023-01-08T02:56:05.407Z,73.63
2023-01-08T02:58:08.516Z,73.90
2023-01-08T03:00:14.499Z,73.88
2023-01-08T03:02:18.467Z,74.04
2023-01-08T03:04:25.085Z,74.00
2023-01-08T03:06:28.884Z,73.51
2023-01-08T03:08:35.303Z,73.50
2023-01-08T03:10:42.617Z,73.75
2023-01-08T03:12:52.770Z,73.40
2023-01-08T03:15:00.142Z,73.34
2023-01-08T03:17:08.691Z,73.55
2023-01-08T03:19:16.438Z,73.84
2023-01-08T03:21:22.016Z,73.83
2023-01-08T03:23:26.616Z,74.34
2023-01-08T03:25:31.279Z,75.02
2023-01-08T03:27:36.073Z,75.14
2023-01-08T03:29:40.762Z,75.72
2023-01-08T03:31:45.191Z,75.52
2023-01-08T03:33:50.771Z,75.75
2023-01-08T03:35:57.621Z,75.40
2023-01-08T03:38:06.642Z,75.15
2023-01-08T03:40:14.669Z,74.94
2023-01-08T03:42:20.716Z,74.82
2023-01-08T03:44:23.638Z,75.04
2023-01-08T03:46:31.439Z,74.90
2023-01-08T03:48:37.433Z,74.52
2023-01-08T03:50:41.904Z,74.36
2023-01-08T03:52:44.696Z,74.17
2023-01-08T03:54:47.461Z,74.41
2023-01-08T03:56:50.388Z,73.75
2023-01-08T03:58:53.203Z,74.01
2023-01-08T04:00:56.111Z,74.18
2023-01-08T04:02:58.899Z,74.00
2023-01-08T04:05:01.686Z,73.39
2023-01-08T04:07:06.088Z,73.57
2023-01-08T04:09:08.875Z,73.78
2023-01-08T04:11:11.676Z,74.25
2023-01-08T04:13:14.428Z,74.06
2023-01-08T04:15:17.690Z,74.36
2023-01-08T04:17:20.441Z,74.12
2023-01-08T04:19:23.402Z,74.19
2023-01-08T04:21:26.195Z,74.27
2023-01-08T04:23:30.447Z,74.51
2023-01-08T04:25:33.210Z,74.44
2023-01-08T04:27:35.993Z,74.52
2023-01-08T04:29:38.804Z,74.67
2023-01-08T04:31:41.587Z,74.62
2023-01-08T04:33:44.441Z,74.73
2023-01-08T04:35:47.235Z,74.75
2023-01-08T04:37:50.380Z,75.01
2023-01-08T04:39:54.549Z,75.04
2023-01-08T04:41:57.445Z,75.16
2023-01-08T04:44:00.253Z,74.87
2023-01-08T04:46:07.563Z,74.72
2023-01-08T04:48:10.324Z,75.18
2023-01-08T04:50:13.201Z,75.01
2023-01-08T04:52:15.926Z,75.04
2023-01-08T04:54:18.860Z,75.29
2023-01-08T04:56:22.986Z,75.37
2023-01-08T04:58:25.834Z,75.99
2023-01-08T05:00:28.646Z,75.97
2023-01-08T05:02:31.576Z,76.40
2023-01-08T05:04:34.589Z,76.60
2023-01-08T05:06:37.367Z,76.47
2023-01-08T05:08:40.196Z,76.61
2023-01-08T05:10:43.010Z,76.46
2023-01-08T05:12:47.282Z,76.78
2023-01-08T05:14:50.059Z,77.02
2023-01-08T05:16:52.825Z,76.42
2023-01-08T05:18:55.650Z,76.74
2023-01-08T05:21:01.914Z,77.00
2023-01-08T05:23:04.773Z,76.88
2023-01-08T05:25:09.084Z,77.03
2023-01-08T05:27:11.853Z,77.04
2023-01-08T05:29:16.232Z,77.10
2023-01-08T05:31:19.190Z,77.37
2023-01-08T05:33:22.776Z,77.38
2023-01-08T05:35:25.676Z,77.43
2023-01-08T05:37:28.588Z,77.46
2023-01-08T05:39:31.367Z,77.33
2023-01-08T05:41:34.143Z,77.44
2023-01-08T05:43:37.512Z,77.85
2023-01-08T05:45:41.665Z,77.79
2023-01-08T05:47:44.498Z,78.04
2023-01-08T05:49:47.330Z,78.14
2023-01-08T05:51:50.190Z,77.90
2023-01-08T05:53:53.008Z,78.10
2023-01-08T05:56:00.539Z,78.32
2023-01-08T05:58:03.695Z,78.31
2023-01-08T06:00:11.289Z,78.62
2023-01-08T06:02:18.245Z,78.79
2023-01-08T06:04:21.243Z,78.37
2023-01-08T06:06:24.094Z,78.46
2023-01-08T06:08:27.067Z,78.47
2023-01-08T06:10:29.854Z,78.45
2023-01-08T06:12:32.554Z,78.26
2023-01-08T06:14:35.351Z,78.75
2023-01-08T06:16:38.120Z,78.47
2023-01-08T06:18:42.269Z,78.79
2023-01-08T06:20:45.308Z,78.84
2023-01-08T06:22:48.083Z,79.13
2023-01-08T06:24:50.992Z,79.01
2023-01-08T06:26:53.800Z,78.90
2023-01-08T06:28:56.675Z,78.75
2023-01-08T06:31:00.651Z,78.89
2023-01-08T06:33:03.587Z,79.09
2023-01-08T06:35:08.641Z,78.91
2023-01-08T06:37:11.377Z,79.14
2023-01-08T06:39:14.958Z,79.41
2023-01-08T06:41:17.783Z,79.17
2023-01-08T06:43:23.890Z,79.03
2023-01-08T06:45:26.829Z,79.35
2023-01-08T06:47:29.592Z,79.63
2023-01-08T06:49:32.393Z,79.23
2023-01-08T06:51:37.045Z,79.23
2023-01-08T06:53:39.833Z,79.31
2023-01-08T06:55:42.704Z,79.64
2023-01-08T06:57:45.471Z,79.24
2023-01-08T06:59:48.264Z,79.29
2023-01-08T07:01:51.360Z,79.41
2023-01-08T07:03:54.295Z,79.41
2023-01-08T07:05:57.485Z,79.22
2023-01-08T07:08:02.248Z,79.18
2023-01-08T07:10:05.561Z,79.57
2023-01-08T07:12:09.873Z,79.37
2023-01-08T07:14:12.641Z,79.43
2023-01-08T07:16:16.141Z,79.58
2023-01-08T07:18:19.001Z,79.63
2023-01-08T07:20:21.781Z,79.23
2023-01-08T07:22:25.782Z,79.53
2023-01-08T07:24:30.186Z,79.47
2023-01-08T07:26:33.396Z,79.69
2023-01-08T07:28:36.344Z,79.62
2023-01-08T07:30:39.120Z,79.62
2023-01-08T07:32:41.923Z,79.66
2023-01-08T07:34:44.802Z,79.69
2023-01-08T07:36:47.543Z,79.45
2023-01-08T07:38:50.729Z,79.97
2023-01-08T07:40:55.308Z,79.55
2023-01-08T07:43:00.166Z,79.90
2023-01-08T07:45:02.869Z,79.92
2023-01-08T07:47:05.765Z,80.10
2023-01-08T07:49:08.993Z,79.91
2023-01-08T07:51:12.038Z,79.89
2023-01-08T07:53:17.067Z,79.40
2023-01-08T07:55:19.937Z,79.61
2023-01-08T07:57:24.067Z,79.23
2023-01-08T07:59:26.817Z,79.22
2023-01-08T08:01:29.786Z,79.44
2023-01-08T08:03:32.627Z,79.78
2023-01-08T08:05:36.148Z,79.76
2023-01-08T08:07:38.969Z,79.73
2023-01-08T08:09:41.776Z,80.12
2023-01-08T08:11:44.656Z,80.36
2023-01-08T08:13:53.045Z,80.16
2023-01-08T08:15:56.714Z,79.77
2023-01-08T08:18:00.812Z,80.31
2023-01-08T08:20:03.678Z,79.91
2023-01-08T08:22:06.628Z,80.39
2023-01-08T08:24:09.744Z,80.32
2023-01-08T08:26:12.557Z,80.36
2023-01-08T08:28:15.325Z,80.46
2023-01-08T08:30:19.439Z,80.85
2023-01-08T08:32:22.320Z,80.77
2023-01-08T08:34:25.186Z,80.99
2023-01-08T08:36:31.443Z,80.59
2023-01-08T08:38:34.615Z,80.80
2023-01-08T08:40:37.407Z,81.39
2023-01-08T08:42:40.247Z,81.05
2023-01-08T08:44:43.239Z,80.87
2023-01-08T08:46:47.661Z,80.98
2023-01-08T08:48:50.608Z,81.17
2023-01-08T08:50:53.485Z,81.32
2023-01-08T08:53:00.985Z,80.96
2023-01-08T08:55:03.856Z,81.23
2023-01-08T08:57:06.635Z,80.47
2023-01-08T08:59:13.012Z,80.74
2023-01-08T09:01:15.973Z,80.39
2023-01-08T09:03:20.309Z,80.58
2023-01-08T09:05:23.071Z,80.67
2023-01-08T09:07:25.991Z,81.22
2023-01-08T09:09:28.875Z,81.30
2023-01-08T09:11:32.524Z,80.87
2023-01-08T09:13:37.075Z,80.96
2023-01-08T09:15:40.183Z,81.25
2023-01-08T09:17:43.053Z,81.29
2023-01-08T09:19:47.223Z,81.31
2023-01-08T09:21:50.377Z,81.24
2023-01-08T09:23:53.156Z,80.80
2023-01-08T09:26:00.491Z,80.65
2023-01-08T09:28:04.776Z,80.63
2023-01-08T09:30:09.013Z,80.92
2023-01-08T09:32:11.929Z,80.86
2023-01-08T09:34:14.722Z,80.79
2023-01-08T09:36:19.886Z,80.88
2023-01-08T09:38:23.282Z,81.18
2023-01-08T09:40:32.499Z,81.18
2023-01-08T09:42:35.443Z,81.37
2023-01-08T09:44:41.222Z,81.34
2023-01-08T09:46:45.287Z,80.56
2023-01-08T09:48:49.015Z,80.88
2023-01-08T09:50:51.857Z,81.39
2023-01-08T09:52:56.136Z,81.54
2023-01-08T09:54:59.009Z,81.42
2023-01-08T09:57:01.952Z,81.63
2023-01-08T09:59:06.204Z,81.23
2023-01-08T10:01:14.668Z,80.93
2023-01-08T10:03:20.595Z,81.02
2023-01-08T10:05:23.501Z,80.94
2023-01-08T10:07:28.215Z,80.99
2023-01-08T10:09:33.889Z,80.94
2023-01-08T10:11:41.754Z,81.00
2023-01-08T10:13:50.232Z,80.96
2023-01-08T10:15:53.356Z,80.54
2023-01-08T10:18:01.853Z,80.49
2023-01-08T10:20:12.898Z,80.37
2023-01-08T10:22:18.576Z,80.90
2023-01-08T10:24:34.094Z,81.24
2023-01-08T10:26:38.685Z,81.09
2023-01-08T10:28:41.490Z,80.84
2023-01-08T10:30:44.324Z,80.81
2023-01-08T10:32:49.734Z,80.85
2023-01-08T10:34:54.728Z,80.96
2023-01-08T10:36:57.962Z,80.52
2023-01-08T10:39:02.512Z,80.83
2023-01-08T10:41:10.547Z,81.03
2023-01-08T10:43:16.615Z,80.65
2023-01-08T10:45:22.699Z,81.36
2023-01-08T10:47:27.039Z,80.33
2023-01-08T10:49:34.471Z,80.98
2023-01-08T10:51:37.309Z,81.11
2023-01-08T10:53:41.374Z,80.43
2023-01-08T10:55:44.167Z,80.21
2023-01-08T10:57:59.265Z,80.30
2023-01-08T11:00:02.073Z,80.50
2023-01-08T11:02:06.015Z,79.72
2023-01-08T11:04:22.722Z,79.04
2023-01-08T11:06:28.468Z,79.39
2023-01-08T11:08:31.299Z,79.91
2023-01-08T11:10:36.053Z,79.46
2023-01-08T11:12:40.731Z,79.57
2023-01-08T11:14:47.247Z,79.13
2023-01-08T11:16:50.788Z,78.70
2023-01-08T11:18:53.614Z,79.50
2023-01-08T11:21:10.761Z,78.84
2023-01-08T11:23:19.021Z,78.29
2023-01-08T11:25:28.052Z,78.96
2023-01-08T11:27:35.633Z,79.34
2023-01-08T11:29:45.631Z,78.86
2023-01-08T11:31:55.175Z,79.16
2023-01-08T11:34:06.619Z,79.58
2023-01-08T11:36:15.618Z,78.84
2023-01-08T11:38:18.386Z,78.63
2023-01-08T11:40:34.894Z,77.68
2023-01-08T11:42:52.059Z,78.59
2023-01-08T11:45:07.944Z,78.62
2023-01-08T11:47:19.942Z,77.37
2023-01-08T11:49:34.019Z,77.06
2023-01-08T11:51:45.234Z,76.42
2023-01-08T11:53:57.200Z,76.76
2023-01-08T11:56:17.479Z,77.74
2023-01-08T11:58:28.308Z,77.62
2023-01-08T12:00:59.967Z,77.45
2023-01-08T12:03:12.226Z,78.33
2023-01-08T12:05:37.786Z,77.84
2023-01-08T12:07:50.005Z,77.68
2023-01-08T12:10:02.119Z,77.49
2023-01-08T12:12:16.127Z,77.63
2023-01-08T12:14:34.912Z,77.17
2023-01-08T12:16:53.776Z,76.86
2023-01-08T12:19:18.523Z,77.00
2023-01-08T12:21:32.061Z,77.81
2023-01-08T12:24:04.669Z,77.18
2023-01-08T12:26:19.926Z,77.09
2023-01-08T12:28:49.562Z,77.76
2023-01-08T12:31:16.126Z,77.26
2023-01-08T12:33:29.607Z,76.71
2023-01-08T12:35:39.355Z,76.16
2023-01-08T12:37:51.867Z,76.02
2023-01-08T12:40:02.210Z,75.69
2023-01-08T12:42:12.459Z,75.42
2023-01-08T12:44:23.685Z,75.73
2023-01-08T12:46:29.180Z,75.72
2023-01-08T12:48:36.410Z,75.66
2023-01-08T12:50:53.667Z,75.79
2023-01-08T12:53:03.108Z,76.36
2023-01-08T12:55:18.065Z,76.50
2023-01-08T12:57:31.614Z,75.66
2023-01-08T12:59:43.571Z,75.83
2023-01-08T13:01:52.183Z,76.03
2023-01-08T13:03:56.194Z,75.65
2023-01-08T13:06:13.115Z,75.22
2023-01-08T13:08:35.292Z,75.09
2023-01-08T13:10:40.134Z,75.30
2023-01-08T13:12:43.644Z,76.60
2023-01-08T13:14:51.406Z,76.51
2023-01-08T13:17:07.605Z,76.44
2023-01-08T13:19:25.807Z,76.75
2023-01-08T13:21:33.412Z,76.59
2023-01-08T13:23:38.167Z,75.82
2023-01-08T13:25:52.859Z,76.17
2023-01-08T13:27:56.406Z,77.23
2023-01-08T13:29:59.309Z,76.46
2023-01-08T13:32:02.551Z,75.88
2023-01-08T13:34:21.303Z,76.18
2023-01-08T13:36:26.280Z,75.82
2023-01-08T13:38:30.465Z,75.86
2023-01-08T13:40:53.404Z,76.27
2023-01-08T13:43:00.163Z,77.12
2023-01-08T13:45:05.729Z,76.92
2023-01-08T13:47:20.453Z,76.42
2023-01-08T13:49:29.164Z,76.69
2023-01-08T13:51:40.023Z,76.12
2023-01-08T13:53:44.836Z,76.09
2023-01-08T13:55:53.886Z,76.34
2023-01-08T13:57:59.948Z,76.47
2023-01-08T14:00:06.789Z,76.55
2023-01-08T14:02:25.175Z,75.92
2023-01-08T14:04:28.396Z,75.68
2023-01-08T14:06:31.410Z,75.60
2023-01-08T14:08:34.886Z,76.00
2023-01-08T14:10:39.160Z,75.79
2023-01-08T14:12:42.077Z,76.73
2023-01-08T14:14:49.551Z,76.63
2023-01-08T14:16:53.981Z,76.53
2023-01-08T14:19:01.634Z,76.01
2023-01-08T14:21:04.487Z,75.79
2023-01-08T14:23:12.484Z,74.89
2023-01-08T14:25:19.877Z,75.28
2023-01-08T14:27:26.022Z,75.23
2023-01-08T14:29:30.789Z,75.08
2023-01-08T14:31:33.434Z,75.91
2023-01-08T14:33:38.273Z,75.53
2023-01-08T14:35:41.200Z,74.86
2023-01-08T14:37:44.039Z,74.35
2023-01-08T14:39:54.256Z,74.89
2023-01-08T14:42:15.035Z,74.53
2023-01-08T14:44:25.963Z,75.50
2023-01-08T14:46:32.262Z,75.31
2023-01-08T14:48:40.499Z,74.62
2023-01-08T14:50:45.178Z,74.39
2023-01-08T14:52:48.552Z,74.41
2023-01-08T14:54:54.426Z,75.28
2023-01-08T14:56:59.200Z,74.43
2023-01-08T14:59:08.685Z,74.77
2023-01-08T15:01:17.869Z,74.14
2023-01-08T15:03:33.270Z,74.31
2023-01-08T15:05:35.918Z,74.09
2023-01-08T15:07:38.723Z,74.01
2023-01-08T15:09:41.621Z,74.26
2023-01-08T15:11:53.480Z,74.13
2023-01-08T15:13:57.177Z,74.54
2023-01-08T15:16:03.674Z,74.48
2023-01-08T15:18:12.888Z,74.73
2023-01-08T15:20:18.388Z,74.64
2023-01-08T15:22:23.953Z,73.93
2023-01-08T15:24:30.865Z,74.55
2023-01-08T15:26:34.249Z,74.07
2023-01-08T15:28:37.232Z,74.18
2023-01-08T15:30:45.601Z,75.14
2023-01-08T15:32:48.373Z,74.77
2023-01-08T15:34:52.576Z,75.21
2023-01-08T15:36:55.397Z,74.24
2023-01-08T15:38:58.147Z,74.50
2023-01-08T15:41:00.953Z,74.61
2023-01-08T15:43:11.433Z,74.92
2023-01-08T15:45:16.902Z,75.19
2023-01-08T15:47:19.656Z,74.41
2023-01-08T15:49:22.536Z,74.19
2023-01-08T15:51:27.537Z,74.24
2023-01-08T15:53:30.394Z,74.66
2023-01-08T15:55:33.345Z,75.04
2023-01-08T15:57:36.165Z,74.21
2023-01-08T15:59:39.096Z,74.74
2023-01-08T16:01:41.948Z,75.42
2023-01-08T16:03:45.579Z,75.57
2023-01-08T16:05:48.345Z,75.62
2023-01-08T16:07:52.695Z,74.88
2023-01-08T16:09:55.538Z,74.99
2023-01-08T16:11:58.342Z,75.59
2023-01-08T16:14:01.116Z,74.87
2023-01-08T16:16:08.143Z,75.71
2023-01-08T16:18:10.977Z,75.28
2023-01-08T16:20:14.504Z,75.40
2023-01-08T16:22:17.351Z,75.50
2023-01-08T16:24:21.400Z,75.04
2023-01-08T16:26:24.278Z,74.88
2023-01-08T16:28:27.086Z,75.22
2023-01-08T16:30:30.582Z,74.64
2023-01-08T16:32:33.442Z,74.87
2023-01-08T16:34:36.611Z,74.48
2023-01-08T16:36:39.574Z,74.54
2023-01-08T16:38:42.349Z,74.72
2023-01-08T16:40:46.497Z,74.96
2023-01-08T16:42:49.284Z,74.98
2023-01-08T16:44:52.095Z,74.32
2023-01-08T16:46:55.530Z,74.10
2023-01-08T16:48:58.421Z,74.15
2023-01-08T16:51:05.963Z,74.80
2023-01-08T16:53:08.865Z,74.99
2023-01-08T16:55:11.816Z,75.12
2023-01-08T16:57:16.011Z,74.41
2023-01-08T16:59:23.779Z,74.59
2023-01-08T17:01:27.870Z,74.96
2023-01-08T17:03:30.834Z,74.59
2023-01-08T17:05:34.091Z,75.18
2023-01-08T17:07:36.935Z,74.65
2023-01-08T17:09:40.160Z,75.03
2023-01-08T17:11:43.714Z,74.97
2023-01-08T17:13:48.531Z,74.95
2023-01-08T17:15:53.047Z,75.00
2023-01-08T17:17:55.940Z,74.57
2023-01-08T17:19:58.718Z,75.23
2023-01-08T17:22:01.508Z,75.01
2023-01-08T17:24:04.955Z,74.51
2023-01-08T17:26:10.879Z,74.76
2023-01-08T17:28:13.734Z,74.64
2023-01-08T17:30:18.256Z,75.03
2023-01-08T17:32:21.571Z,75.17
2023-01-08T17:34:24.355Z,75.16
2023-01-08T17:36:27.821Z,75.24
2023-01-08T17:38:30.527Z,74.30
2023-01-08T17:40:34.328Z,74.95
2023-01-08T17:42:39.211Z,74.16
2023-01-08T17:44:41.821Z,74.76
2023-01-08T17:46:46.127Z,75.06
2023-01-08T17:48:48.941Z,75.08
2023-01-08T17:50:51.761Z,74.62
2023-01-08T17:52:54.623Z,74.78
2023-01-08T17:54:57.504Z,74.69
2023-01-08T17:57:00.307Z,74.55
2023-01-08T17:59:03.114Z,75.29
2023-01-08T18:01:10.135Z,74.44
2023-01-08T18:03:14.477Z,74.47
2023-01-08T18:05:17.294Z,75.28
2023-01-08T18:07:20.092Z,74.72
2023-01-08T18:09:23.204Z,75.04
2023-01-08T18:11:26.322Z,75.14
2023-01-08T18:13:30.945Z,75.06
2023-01-08T18:15:34.365Z,75.13
2023-01-08T18:17:37.158Z,75.04
2023-01-08T18:19:41.445Z,74.48
2023-01-08T18:21:44.712Z,74.85
2023-01-08T18:23:48.378Z,75.30
2023-01-08T18:25:51.380Z,75.37
2023-01-08T18:27:54.176Z,75.11
2023-01-08T18:29:56.961Z,75.39
2023-01-08T18:31:59.808Z,75.16
2023-01-08T18:34:03.737Z,74.88
2023-01-08T18:36:10.642Z,75.55
2023-01-08T18:38:15.729Z,75.64
2023-01-08T18:40:18.661Z,75.27
2023-01-08T18:42:26.275Z,74.99
2023-01-08T18:44:29.169Z,75.13
2023-01-08T18:46:32.090Z,75.07
2023-01-08T18:48:36.000Z,75.39
2023-01-08T18:50:40.355Z,75.22
2023-01-08T18:52:44.543Z,75.57
2023-01-08T18:54:47.453Z,74.93
2023-01-08T18:56:51.062Z,75.43
2023-01-08T18:58:53.868Z,75.34
2023-01-08T19:00:56.948Z,75.01
2023-01-08T19:02:59.758Z,75.16
2023-01-08T19:05:02.762Z,74.83
2023-01-08T19:07:05.623Z,74.93
2023-01-08T19:09:09.758Z,75.18
2023-01-08T19:11:13.881Z,75.06
2023-01-08T19:13:17.360Z,75.16
2023-01-08T19:15:20.313Z,74.70
2023-01-08T19:17:23.123Z,74.75
2023-01-08T19:19:26.235Z,75.17
2023-01-08T19:21:29.290Z,74.93
2023-01-08T19:23:32.294Z,75.11
2023-01-08T19:25:39.137Z,74.87
2023-01-08T19:27:41.975Z,75.11
2023-01-08T19:29:44.878Z,74.53
2023-01-08T19:31:47.975Z,75.02
2023-01-08T19:33:52.639Z,74.56
2023-01-08T19:35:55.588Z,74.57
2023-01-08T19:37:58.438Z,74.45
2023-01-08T19:40:02.867Z,75.08
2023-01-08T19:42:33.212Z,74.62
2023-01-08T19:44:35.995Z,74.52
2023-01-08T19:46:38.816Z,75.35
2023-01-08T19:48:43.826Z,74.89
2023-01-08T19:50:48.159Z,75.16
2023-01-08T19:52:51.331Z,74.89
2023-01-08T19:54:55.132Z,74.52
2023-01-08T19:56:58.012Z,74.35
2023-01-08T19:59:02.242Z,74.36
2023-01-08T20:01:10.206Z,74.56
2023-01-08T20:03:13.303Z,74.51
2023-01-08T20:05:16.343Z,74.73
2023-01-08T20:07:19.743Z,74.11
2023-01-08T20:09:22.555Z,74.48
2023-01-08T20:11:26.215Z,74.24
2023-01-08T20:13:29.378Z,74.83
2023-01-08T20:15:33.646Z,74.30
2023-01-08T20:17:36.427Z,74.71
2023-01-08T20:19:39.240Z,74.75
2023-01-08T20:21:42.205Z,74.84
2023-01-08T20:23:46.034Z,74.70
2023-01-08T20:25:49.200Z,74.75
2023-01-08T20:27:51.968Z,73.90
2023-01-08T20:29:54.741Z,74.35
2023-01-08T20:31:59.894Z,74.37
2023-01-08T20:34:04.532Z,74.40
2023-01-08T20:36:09.373Z,74.34
2023-01-08T20:38:12.053Z,74.16
2023-01-08T20:40:15.060Z,74.19
2023-01-08T20:42:32.993Z,73.96
2023-01-08T20:44:36.870Z,74.30
2023-01-08T20:46:40.127Z,73.69
2023-01-08T20:48:48.401Z,73.49
2023-01-08T20:50:55.921Z,74.07
2023-01-08T20:52:58.790Z,74.15
2023-01-08T20:55:01.623Z,73.80
2023-01-08T20:57:04.658Z,73.84
2023-01-08T20:59:07.907Z,74.06
2023-01-08T21:01:13.840Z,74.23
2023-01-08T21:03:17.056Z,73.56
2023-01-08T21:05:21.445Z,73.23
2023-01-08T21:07:24.301Z,73.95
2023-01-08T21:09:27.465Z,73.96
2023-01-08T21:11:31.086Z,73.70
2023-01-08T21:13:34.767Z,74.10
2023-01-08T21:15:38.064Z,73.89
2023-01-08T21:17:41.016Z,73.94
2023-01-08T21:19:43.915Z,73.92
2023-01-08T21:21:48.031Z,74.05
2023-01-08T21:23:51.431Z,73.49
2023-01-08T21:25:58.664Z,74.23
2023-01-08T21:28:01.549Z,73.67
2023-01-08T21:30:05.416Z,73.59
2023-01-08T21:32:08.689Z,74.32
2023-01-08T21:34:11.787Z,74.57
2023-01-08T21:36:16.613Z,74.67
2023-01-08T21:38:20.657Z,74.54
2023-01-08T21:40:26.291Z,74.70
2023-01-08T21:42:46.524Z,74.50
2023-01-08T21:45:06.750Z,74.60
2023-01-08T21:47:12.255Z,74.57
2023-01-08T21:49:15.307Z,75.39
2023-01-08T21:51:36.058Z,74.79
2023-01-08T21:53:43.302Z,74.67
2023-01-08T21:55:46.400Z,75.39
2023-01-08T21:57:49.161Z,75.64
2023-01-08T21:59:52.677Z,75.45
2023-01-08T22:01:55.470Z,75.33
2023-01-08T22:03:58.715Z,75.14
2023-01-08T22:06:03.708Z,75.05
2023-01-08T22:08:09.982Z,75.23
2023-01-08T22:10:14.387Z,75.42
2023-01-08T22:12:21.801Z,75.53
2023-01-08T22:14:24.554Z,75.42
2023-01-08T22:16:29.635Z,75.80
2023-01-08T22:18:33.323Z,75.44
2023-01-08T22:20:36.116Z,75.71
2023-01-08T22:22:39.007Z,75.52
2023-01-08T22:24:41.887Z,76.03
2023-01-08T22:26:46.172Z,75.89
2023-01-08T22:28:48.979Z,75.93
2023-01-08T22:30:52.432Z,75.33
2023-01-08T22:32:55.176Z,76.09
2023-01-08T22:34:58.046Z,76.17
2023-01-08T22:37:00.899Z,76.42
2023-01-08T22:39:03.666Z,76.30
2023-01-08T22:41:16.823Z,76.19
2023-01-08T22:43:22.640Z,76.16
2023-01-08T22:45:25.722Z,76.87
2023-01-08T22:47:28.918Z,76.88
2023-01-08T22:49:33.618Z,77.22
2023-01-08T22:51:36.580Z,77.43
2023-01-08T22:53:42.493Z,77.48
2023-01-08T22:55:52.702Z,77.62
2023-01-08T22:57:55.516Z,77.87
2023-01-08T22:59:59.805Z,77.25
2023-01-08T23:02:02.762Z,78.00
2023-01-08T23:04:06.059Z,78.20
2023-01-08T23:06:09.967Z,78.07
2023-01-08T23:08:12.813Z,78.24
2023-01-08T23:10:15.734Z,77.96
2023-01-08T23:12:19.976Z,78.34
2023-01-08T23:14:22.743Z,78.60
2023-01-08T23:16:27.037Z,78.99
2023-01-08T23:18:30.058Z,78.89
2023-01-08T23:20:35.795Z,79.21
2023-01-08T23:22:39.266Z,78.60
2023-01-08T23:24:42.009Z,78.69
2023-01-08T23:26:48.536Z,78.57
2023-01-08T23:28:53.212Z,79.27
2023-01-08T23:30:55.965Z,79.51
2023-01-08T23:33:02.355Z,79.38
2023-01-08T23:35:05.920Z,79.35
2023-01-08T23:37:09.127Z,79.22
2023-01-08T23:39:11.995Z,79.51
2023-01-08T23:41:15.220Z,79.58
2023-01-08T23:43:18.615Z,79.66
2023-01-08T23:45:21.498Z,80.12
2023-01-08T23:47:24.554Z,79.90
2023-01-08T23:49:28.711Z,80.00
2023-01-08T23:51:31.779Z,80.08
2023-01-08T23:53:35.939Z,80.30
2023-01-08T23:55:38.747Z,79.80
2023-01-08T23:57:41.614Z,79.72
2023-01-08T23:59:44.453Z,79.80
